sensor_id;sensor_type;location;lat;lon;timestamp;pressure;altitude;pressure_sealevel;temperature;humidity
45050;BME280;61798;48.048;-1.928;2024-02-28T00:02:06;101253.31;;;3.77;100.00
45050;BME280;61798;48.048;-1.928;2024-02-28T00:04:13;101256.94;;;3.76;100.00
45050;BME280;61798;48.048;-1.928;2024-02-28T00:06:20;101246.91;;;3.80;100.00
45050;BME280;61798;48.048;-1.928;2024-02-28T00:08:27;101264.09;;;3.86;100.00
45050;BME280;61798;48.048;-1.928;2024-02-28T00:10:34;101254.16;;;3.78;100.00
45050;BME280;61798;48.048;-1.928;2024-02-28T00:12:41;101257.22;;;3.83;100.00
45050;BME280;61798;48.048;-1.928;2024-02-28T00:14:48;101239.59;;;3.72;100.00
45050;BME280;61798;48.048;-1.928;2024-02-28T00:16:55;101241.97;;;3.75;100.00
45050;BME280;61798;48.048;-1.928;2024-02-28T00:19:02;101256.97;;;3.86;100.00
45050;BME280;61798;48.048;-1.928;2024-02-28T00:21:09;101246.88;;;3.70;100.00
45050;BME280;61798;48.048;-1.928;2024-02-28T00:23:17;101252.84;;;3.72;100.00
45050;BME280;61798;48.048;-1.928;2024-02-28T00:25:22;101251.56;;;3.66;100.00
45050;BME280;61798;48.048;-1.928;2024-02-28T00:27:28;101248.13;;;3.76;100.00
45050;BME280;61798;48.048;-1.928;2024-02-28T00:29:34;101251.34;;;3.79;100.00
45050;BME280;61798;48.048;-1.928;2024-02-28T00:31:41;101249.28;;;3.83;100.00
45050;BME280;61798;48.048;-1.928;2024-02-28T00:33:48;101248.31;;;3.84;100.00
45050;BME280;61798;48.048;-1.928;2024-02-28T00:35:55;101257.84;;;3.97;100.00
45050;BME280;61798;48.048;-1.928;2024-02-28T00:38:02;101252.56;;;3.97;100.00
45050;BME280;61798;48.048;-1.928;2024-02-28T00:40:10;101244.16;;;3.91;100.00
45050;BME280;61798;48.048;-1.928;2024-02-28T00:42:17;101254.66;;;4.03;100.00
45050;BME280;61798;48.048;-1.928;2024-02-28T00:44:24;101262.34;;;4.06;100.00
45050;BME280;61798;48.048;-1.928;2024-02-28T00:46:31;101260.25;;;4.00;100.00
45050;BME280;61798;48.048;-1.928;2024-02-28T00:48:39;101265.44;;;4.11;100.00
45050;BME280;61798;48.048;-1.928;2024-02-28T00:50:48;101248.66;;;4.01;100.00
45050;BME280;61798;48.048;-1.928;2024-02-28T00:52:55;101251.03;;;4.04;100.00
45050;BME280;61798;48.048;-1.928;2024-02-28T00:55:02;101252.91;;;4.14;100.00
45050;BME280;61798;48.048;-1.928;2024-02-28T00:57:12;101259.63;;;4.18;100.00
45050;BME280;61798;48.048;-1.928;2024-02-28T00:59:19;101267.72;;;4.26;100.00
45050;BME280;61798;48.048;-1.928;2024-02-28T01:01:25;101256.28;;;4.26;100.00
45050;BME280;61798;48.048;-1.928;2024-02-28T01:03:32;101255.16;;;4.28;100.00
45050;BME280;61798;48.048;-1.928;2024-02-28T01:05:39;101267.75;;;4.36;100.00
45050;BME280;61798;48.048;-1.928;2024-02-28T01:07:46;101216.72;;;4.12;100.00
45050;BME280;61798;48.048;-1.928;2024-02-28T01:09:53;101250.53;;;4.30;100.00
45050;BME280;61798;48.048;-1.928;2024-02-28T01:12:01;101256.72;;;4.41;100.00
45050;BME280;61798;48.048;-1.928;2024-02-28T01:14:08;101210.19;;;4.27;100.00
45050;BME280;61798;48.048;-1.928;2024-02-28T01:16:15;101230.19;;;4.41;100.00
45050;BME280;61798;48.048;-1.928;2024-02-28T01:18:22;101231.84;;;4.42;100.00
45050;BME280;61798;48.048;-1.928;2024-02-28T01:20:29;101221.94;;;4.44;100.00
45050;BME280;61798;48.048;-1.928;2024-02-28T01:22:36;101243.22;;;4.64;100.00
45050;BME280;61798;48.048;-1.928;2024-02-28T01:24:43;101239.59;;;4.65;100.00
45050;BME280;61798;48.048;-1.928;2024-02-28T01:26:50;101234.97;;;4.67;100.00
45050;BME280;61798;48.048;-1.928;2024-02-28T01:28:57;101237.34;;;4.70;100.00
45050;BME280;61798;48.048;-1.928;2024-02-28T01:31:04;101238.75;;;4.74;100.00
45050;BME280;61798;48.048;-1.928;2024-02-28T01:33:12;101229.13;;;4.73;100.00
45050;BME280;61798;48.048;-1.928;2024-02-28T01:35:21;101240.41;;;4.75;100.00
45050;BME280;61798;48.048;-1.928;2024-02-28T01:37:29;101232.31;;;4.77;100.00
45050;BME280;61798;48.048;-1.928;2024-02-28T01:39:35;101217.94;;;4.70;100.00
45050;BME280;61798;48.048;-1.928;2024-02-28T01:41:41;101220.28;;;4.83;100.00
45050;BME280;61798;48.048;-1.928;2024-02-28T01:43:50;101221.69;;;4.87;100.00
45050;BME280;61798;48.048;-1.928;2024-02-28T01:45:56;101155.19;;;4.49;100.00
45050;BME280;61798;48.048;-1.928;2024-02-28T01:48:10;101166.78;;;4.58;100.00
45050;BME280;61798;48.048;-1.928;2024-02-28T01:50:18;101203.09;;;4.87;100.00
45050;BME280;61798;48.048;-1.928;2024-02-28T01:52:25;101207.88;;;4.93;100.00
45050;BME280;61798;48.048;-1.928;2024-02-28T01:54:35;101195.84;;;4.79;100.00
45050;BME280;61798;48.048;-1.928;2024-02-28T01:56:43;101211.50;;;4.92;100.00
45050;BME280;61798;48.048;-1.928;2024-02-28T01:58:51;101215.38;;;4.98;100.00
45050;BME280;61798;48.048;-1.928;2024-02-28T02:01:00;101203.94;;;4.97;100.00
45050;BME280;61798;48.048;-1.928;2024-02-28T02:03:07;101188.69;;;4.90;100.00
45050;BME280;61798;48.048;-1.928;2024-02-28T02:05:15;101207.72;;;5.05;100.00
45050;BME280;61798;48.048;-1.928;2024-02-28T02:07:23;101197.63;;;4.99;100.00
45050;BME280;61798;48.048;-1.928;2024-02-28T02:09:31;101192.06;;;4.92;100.00
45050;BME280;61798;48.048;-1.928;2024-02-28T02:11:39;101222.38;;;5.09;100.00
45050;BME280;61798;48.048;-1.928;2024-02-28T02:13:53;101191.78;;;4.95;100.00
45050;BME280;61798;48.048;-1.928;2024-02-28T02:16:00;101207.97;;;5.02;100.00
45050;BME280;61798;48.048;-1.928;2024-02-28T02:18:07;101219.84;;;5.07;100.00
45050;BME280;61798;48.048;-1.928;2024-02-28T02:20:14;101200.84;;;5.02;100.00
45050;BME280;61798;48.048;-1.928;2024-02-28T02:22:23;101216.63;;;5.14;100.00
45050;BME280;61798;48.048;-1.928;2024-02-28T02:24:33;101202.66;;;5.12;100.00
45050;BME280;61798;48.048;-1.928;2024-02-28T02:26:40;101204.19;;;5.14;100.00
45050;BME280;61798;48.048;-1.928;2024-02-28T02:28:47;101196.91;;;5.16;100.00
45050;BME280;61798;48.048;-1.928;2024-02-28T02:30:54;101202.22;;;5.16;100.00
45050;BME280;61798;48.048;-1.928;2024-02-28T02:33:01;101183.94;;;5.13;100.00
45050;BME280;61798;48.048;-1.928;2024-02-28T02:35:08;101190.91;;;5.14;100.00
45050;BME280;61798;48.048;-1.928;2024-02-28T02:37:15;101192.03;;;5.12;100.00
45050;BME280;61798;48.048;-1.928;2024-02-28T02:39:23;101193.16;;;5.09;100.00
45050;BME280;61798;48.048;-1.928;2024-02-28T02:41:29;101149.84;;;4.89;100.00
45050;BME280;61798;48.048;-1.928;2024-02-28T02:43:36;101162.41;;;4.86;100.00
45050;BME280;61798;48.048;-1.928;2024-02-28T02:45:46;101188.81;;;5.08;100.00
45050;BME280;61798;48.048;-1.928;2024-02-28T02:47:53;101173.72;;;4.99;100.00
45050;BME280;61798;48.048;-1.928;2024-02-28T02:49:59;101174.44;;;5.01;100.00
45050;BME280;61798;48.048;-1.928;2024-02-28T02:52:05;101172.63;;;5.01;100.00
45050;BME280;61798;48.048;-1.928;2024-02-28T02:54:12;101171.06;;;4.99;100.00
45050;BME280;61798;48.048;-1.928;2024-02-28T02:56:18;101163.25;;;4.97;100.00
45050;BME280;61798;48.048;-1.928;2024-02-28T02:58:24;101159.06;;;4.94;100.00
45050;BME280;61798;48.048;-1.928;2024-02-28T03:00:29;101168.69;;;4.95;100.00
45050;BME280;61798;48.048;-1.928;2024-02-28T03:02:37;101145.94;;;4.83;100.00
45050;BME280;61798;48.048;-1.928;2024-02-28T03:04:47;101142.88;;;4.78;100.00
45050;BME280;61798;48.048;-1.928;2024-02-28T03:06:54;101116.19;;;4.69;100.00
45050;BME280;61798;48.048;-1.928;2024-02-28T03:09:01;101124.16;;;4.69;100.00
45050;BME280;61798;48.048;-1.928;2024-02-28T03:11:10;101132.41;;;4.76;100.00
45050;BME280;61798;48.048;-1.928;2024-02-28T03:13:18;101127.75;;;4.78;100.00
45050;BME280;61798;48.048;-1.928;2024-02-28T03:15:25;101131.69;;;4.84;100.00
45050;BME280;61798;48.048;-1.928;2024-02-28T03:17:32;101118.28;;;4.85;100.00
45050;BME280;61798;48.048;-1.928;2024-02-28T03:19:39;101122.88;;;4.83;100.00
45050;BME280;61798;48.048;-1.928;2024-02-28T03:21:46;101100.09;;;4.81;100.00
45050;BME280;61798;48.048;-1.928;2024-02-28T03:23:53;101100.94;;;4.81;100.00
45050;BME280;61798;48.048;-1.928;2024-02-28T03:26:00;101108.75;;;4.93;100.00
45050;BME280;61798;48.048;-1.928;2024-02-28T03:28:07;101091.13;;;4.92;100.00
45050;BME280;61798;48.048;-1.928;2024-02-28T03:30:16;101088.34;;;4.93;100.00
45050;BME280;61798;48.048;-1.928;2024-02-28T03:32:23;101078.25;;;4.97;100.00
45050;BME280;61798;48.048;-1.928;2024-02-28T03:34:30;101083.81;;;5.04;100.00
45050;BME280;61798;48.048;-1.928;2024-02-28T03:36:36;101074.41;;;5.20;100.00
45050;BME280;61798;48.048;-1.928;2024-02-28T03:38:43;101074.00;;;5.14;100.00
45050;BME280;61798;48.048;-1.928;2024-02-28T03:40:50;101076.22;;;5.19;100.00
45050;BME280;61798;48.048;-1.928;2024-02-28T03:42:56;101073.00;;;5.25;100.00
45050;BME280;61798;48.048;-1.928;2024-02-28T03:45:03;101059.00;;;5.23;100.00
45050;BME280;61798;48.048;-1.928;2024-02-28T03:47:11;101049.34;;;5.22;100.00
45050;BME280;61798;48.048;-1.928;2024-02-28T03:49:18;101061.91;;;5.30;100.00
45050;BME280;61798;48.048;-1.928;2024-02-28T03:51:25;101036.31;;;5.29;100.00
45050;BME280;61798;48.048;-1.928;2024-02-28T03:53:33;101035.19;;;5.32;100.00
45050;BME280;61798;48.048;-1.928;2024-02-28T03:55:39;101030.84;;;5.31;100.00
45050;BME280;61798;48.048;-1.928;2024-02-28T03:57:49;101044.78;;;5.43;100.00
45050;BME280;61798;48.048;-1.928;2024-02-28T04:00:01;101034.34;;;5.31;100.00
45050;BME280;61798;48.048;-1.928;2024-02-28T04:02:09;101041.44;;;5.41;100.00
45050;BME280;61798;48.048;-1.928;2024-02-28T04:04:16;101037.41;;;5.36;100.00
45050;BME280;61798;48.048;-1.928;2024-02-28T04:06:24;101023.72;;;5.31;100.00
45050;BME280;61798;48.048;-1.928;2024-02-28T04:08:31;101030.00;;;5.30;100.00
45050;BME280;61798;48.048;-1.928;2024-02-28T04:10:38;101028.44;;;5.37;100.00
45050;BME280;61798;48.048;-1.928;2024-02-28T04:12:44;101042.56;;;5.38;100.00
45050;BME280;61798;48.048;-1.928;2024-02-28T04:14:50;101038.69;;;5.32;100.00
45050;BME280;61798;48.048;-1.928;2024-02-28T04:16:56;101052.63;;;5.34;100.00
45050;BME280;61798;48.048;-1.928;2024-02-28T04:19:03;101044.09;;;5.12;100.00
45050;BME280;61798;48.048;-1.928;2024-02-28T04:21:11;101059.31;;;5.10;100.00
45050;BME280;61798;48.048;-1.928;2024-02-28T04:23:18;101074.53;;;5.18;100.00
45050;BME280;61798;48.048;-1.928;2024-02-28T04:25:25;101076.38;;;5.17;100.00
45050;BME280;61798;48.048;-1.928;2024-02-28T04:27:32;101083.03;;;5.22;100.00
45050;BME280;61798;48.048;-1.928;2024-02-28T04:29:39;101070.66;;;5.12;100.00
45050;BME280;61798;48.048;-1.928;2024-02-28T04:31:46;101087.13;;;5.16;100.00
45050;BME280;61798;48.048;-1.928;2024-02-28T04:33:53;101078.91;;;5.09;100.00
45050;BME280;61798;48.048;-1.928;2024-02-28T04:36:01;101069.56;;;5.05;100.00
45050;BME280;61798;48.048;-1.928;2024-02-28T04:38:08;101074.88;;;5.05;100.00
45050;BME280;61798;48.048;-1.928;2024-02-28T04:40:15;101045.56;;;4.86;100.00
45050;BME280;61798;48.048;-1.928;2024-02-28T04:42:23;101078.50;;;5.04;100.00
45050;BME280;61798;48.048;-1.928;2024-02-28T04:44:30;101081.84;;;5.06;100.00
45050;BME280;61798;48.048;-1.928;2024-02-28T04:46:37;101069.16;;;5.00;100.00
45050;BME280;61798;48.048;-1.928;2024-02-28T04:48:44;101062.03;;;5.00;100.00
45050;BME280;61798;48.048;-1.928;2024-02-28T04:50:52;101058.97;;;4.95;100.00
45050;BME280;61798;48.048;-1.928;2024-02-28T04:52:58;101053.09;;;5.01;100.00
45050;BME280;61798;48.048;-1.928;2024-02-28T04:55:05;101049.31;;;4.94;100.00
45050;BME280;61798;48.048;-1.928;2024-02-28T04:57:11;101059.78;;;5.05;100.00
45050;BME280;61798;48.048;-1.928;2024-02-28T04:59:16;101055.56;;;5.03;100.00
45050;BME280;61798;48.048;-1.928;2024-02-28T05:01:24;101028.34;;;4.91;100.00
45050;BME280;61798;48.048;-1.928;2024-02-28T05:03:31;101029.31;;;5.00;100.00
45050;BME280;61798;48.048;-1.928;2024-02-28T05:05:38;101048.16;;;5.06;100.00
45050;BME280;61798;48.048;-1.928;2024-02-28T05:07:45;101045.66;;;5.05;100.00
45050;BME280;61798;48.048;-1.928;2024-02-28T05:09:52;101030.28;;;4.99;100.00
45050;BME280;61798;48.048;-1.928;2024-02-28T05:11:59;101038.22;;;5.08;100.00
45050;BME280;61798;48.048;-1.928;2024-02-28T05:14:06;101013.06;;;5.03;100.00
45050;BME280;61798;48.048;-1.928;2024-02-28T05:16:16;101018.50;;;5.11;100.00
45050;BME280;61798;48.048;-1.928;2024-02-28T05:18:23;101006.34;;;5.08;100.00
45050;BME280;61798;48.048;-1.928;2024-02-28T05:20:32;101003.84;;;5.07;100.00
45050;BME280;61798;48.048;-1.928;2024-02-28T05:22:40;100987.88;;;5.07;100.00
45050;BME280;61798;48.048;-1.928;2024-02-28T05:24:49;100999.91;;;5.11;100.00
45050;BME280;61798;48.048;-1.928;2024-02-28T05:26:56;100992.78;;;5.12;100.00
45050;BME280;61798;48.048;-1.928;2024-02-28T05:29:04;100978.78;;;5.10;100.00
45050;BME280;61798;48.048;-1.928;2024-02-28T05:31:26;100979.63;;;5.10;100.00
45050;BME280;61798;48.048;-1.928;2024-02-28T05:33:33;100971.84;;;4.99;100.00
45050;BME280;61798;48.048;-1.928;2024-02-28T05:35:39;100974.38;;;5.00;100.00
45050;BME280;61798;48.048;-1.928;2024-02-28T05:37:46;100975.50;;;4.97;100.00
45050;BME280;61798;48.048;-1.928;2024-02-28T05:39:53;100982.34;;;5.00;100.00
45050;BME280;61798;48.048;-1.928;2024-02-28T05:42:00;100989.03;;;5.04;100.00
45050;BME280;61798;48.048;-1.928;2024-02-28T05:44:07;100978.00;;;4.99;100.00
45050;BME280;61798;48.048;-1.928;2024-02-28T05:46:16;100983.72;;;5.04;100.00
45050;BME280;61798;48.048;-1.928;2024-02-28T05:48:23;100991.53;;;5.06;100.00
45050;BME280;61798;48.048;-1.928;2024-02-28T05:50:30;100984.41;;;5.06;100.00
45050;BME280;61798;48.048;-1.928;2024-02-28T05:52:41;100992.22;;;5.08;100.00
45050;BME280;61798;48.048;-1.928;2024-02-28T05:54:49;100985.41;;;5.05;100.00
45050;BME280;61798;48.048;-1.928;2024-02-28T05:56:56;100984.03;;;5.01;100.00
45050;BME280;61798;48.048;-1.928;2024-02-28T05:59:03;100985.13;;;4.99;100.00
45050;BME280;61798;48.048;-1.928;2024-02-28T06:01:10;100991.81;;;5.03;100.00
45050;BME280;61798;48.048;-1.928;2024-02-28T06:03:18;101000.19;;;5.08;100.00
45050;BME280;61798;48.048;-1.928;2024-02-28T06:05:24;100979.69;;;5.00;100.00
45050;BME280;61798;48.048;-1.928;2024-02-28T06:07:32;100977.88;;;5.01;100.00
45050;BME280;61798;48.048;-1.928;2024-02-28T06:09:38;100994.59;;;5.11;100.00
45050;BME280;61798;48.048;-1.928;2024-02-28T06:11:43;100988.97;;;5.14;100.00
45050;BME280;61798;48.048;-1.928;2024-02-28T06:13:53;100992.47;;;5.15;100.00
45050;BME280;61798;48.048;-1.928;2024-02-28T06:16:00;100993.00;;;5.18;100.00
45050;BME280;61798;48.048;-1.928;2024-02-28T06:18:08;100999.16;;;5.19;100.00
45050;BME280;61798;48.048;-1.928;2024-02-28T06:20:16;100961.09;;;5.00;100.00
45050;BME280;61798;48.048;-1.928;2024-02-28T06:22:24;100974.72;;;5.15;100.00
45050;BME280;61798;48.048;-1.928;2024-02-28T06:24:33;100969.50;;;5.24;100.00
45050;BME280;61798;48.048;-1.928;2024-02-28T06:26:41;100968.78;;;5.22;100.00
45050;BME280;61798;48.048;-1.928;2024-02-28T06:28:50;100943.34;;;5.19;100.00
45050;BME280;61798;48.048;-1.928;2024-02-28T06:30:58;100926.66;;;5.08;100.00
45050;BME280;61798;48.048;-1.928;2024-02-28T06:33:05;100955.06;;;5.26;100.00
45050;BME280;61798;48.048;-1.928;2024-02-28T06:35:12;100936.09;;;5.21;100.00
45050;BME280;61798;48.048;-1.928;2024-02-28T06:37:18;100921.03;;;5.12;100.00
45050;BME280;61798;48.048;-1.928;2024-02-28T06:39:28;100937.22;;;5.18;100.00
45050;BME280;61798;48.048;-1.928;2024-02-28T06:41:35;100937.75;;;5.22;100.00
45050;BME280;61798;48.048;-1.928;2024-02-28T06:43:42;100944.44;;;5.26;100.00
45050;BME280;61798;48.048;-1.928;2024-02-28T06:45:49;100911.78;;;5.16;100.00
45050;BME280;61798;48.048;-1.928;2024-02-28T06:47:57;100881.63;;;5.07;100.00
45050;BME280;61798;48.048;-1.928;2024-02-28T06:50:05;100911.88;;;5.24;100.00
45050;BME280;61798;48.048;-1.928;2024-02-28T06:52:13;100911.25;;;5.31;100.00
45050;BME280;61798;48.048;-1.928;2024-02-28T06:54:20;100904.44;;;5.28;100.00
45050;BME280;61798;48.048;-1.928;2024-02-28T06:56:27;100908.75;;;5.29;100.00
45050;BME280;61798;48.048;-1.928;2024-02-28T06:58:35;100908.75;;;5.29;100.00
45050;BME280;61798;48.048;-1.928;2024-02-28T07:00:41;100906.38;;;5.26;100.00
45050;BME280;61798;48.048;-1.928;2024-02-28T07:02:48;100905.56;;;5.25;100.00
45050;BME280;61798;48.048;-1.928;2024-02-28T07:04:56;100901.81;;;5.18;100.00
45050;BME280;61798;48.048;-1.928;2024-02-28T07:07:03;100915.06;;;5.28;100.00
45050;BME280;61798;48.048;-1.928;2024-02-28T07:09:11;100914.09;;;5.29;100.00
45050;BME280;61798;48.048;-1.928;2024-02-28T07:11:18;100892.75;;;5.21;100.00
45050;BME280;61798;48.048;-1.928;2024-02-28T07:13:26;100859.00;;;5.03;100.00
45050;BME280;61798;48.048;-1.928;2024-02-28T07:15:34;100871.97;;;5.06;100.00
45050;BME280;61798;48.048;-1.928;2024-02-28T07:17:41;100862.63;;;5.02;100.00
45050;BME280;61798;48.048;-1.928;2024-02-28T07:19:48;100911.13;;;5.32;100.00
45050;BME280;61798;48.048;-1.928;2024-02-28T07:21:56;100916.19;;;5.44;100.00
45050;BME280;61798;48.048;-1.928;2024-02-28T07:24:03;100919.16;;;5.41;100.00
45050;BME280;61798;48.048;-1.928;2024-02-28T07:26:15;100924.31;;;5.42;100.00
45050;BME280;61798;48.048;-1.928;2024-02-28T07:28:21;100909.97;;;5.35;100.00
45050;BME280;61798;48.048;-1.928;2024-02-28T07:30:28;100928.72;;;5.52;100.00
45050;BME280;61798;48.048;-1.928;2024-02-28T07:32:35;100912.19;;;5.39;100.00
45050;BME280;61798;48.048;-1.928;2024-02-28T07:34:43;100918.78;;;5.54;100.00
45050;BME280;61798;48.048;-1.928;2024-02-28T07:36:50;100891.91;;;5.38;100.00
45050;BME280;61798;48.048;-1.928;2024-02-28T07:38:57;100876.56;;;5.32;100.00
45050;BME280;61798;48.048;-1.928;2024-02-28T07:41:05;100871.78;;;5.36;100.00
45050;BME280;61798;48.048;-1.928;2024-02-28T07:43:10;100857.97;;;5.32;100.00
45050;BME280;61798;48.048;-1.928;2024-02-28T07:45:18;100845.41;;;5.43;100.00
45050;BME280;61798;48.048;-1.928;2024-02-28T07:47:25;100872.41;;;5.75;100.00
45050;BME280;61798;48.048;-1.928;2024-02-28T07:49:32;100847.56;;;5.66;100.00
45050;BME280;61798;48.048;-1.928;2024-02-28T07:51:39;100849.38;;;5.84;100.00
45050;BME280;61798;48.048;-1.928;2024-02-28T07:53:49;100861.75;;;5.93;100.00
45050;BME280;61798;48.048;-1.928;2024-02-28T07:55:56;100844.16;;;5.74;100.00
45050;BME280;61798;48.048;-1.928;2024-02-28T07:58:03;100849.44;;;5.92;100.00
45050;BME280;61798;48.048;-1.928;2024-02-28T08:00:13;100859.38;;;5.90;100.00
45050;BME280;61798;48.048;-1.928;2024-02-28T08:02:20;100854.16;;;6.07;100.00
45050;BME280;61798;48.048;-1.928;2024-02-28T08:04:27;100809.72;;;5.99;100.00
45050;BME280;61798;48.048;-1.928;2024-02-28T08:06:34;100812.50;;;5.89;100.00
45050;BME280;61798;48.048;-1.928;2024-02-28T08:08:40;100841.66;;;6.26;100.00
45050;BME280;61798;48.048;-1.928;2024-02-28T08:10:50;100834.34;;;6.28;100.00
45050;BME280;61798;48.048;-1.928;2024-02-28T08:13:00;100853.88;;;6.37;100.00
45050;BME280;61798;48.048;-1.928;2024-02-28T08:15:10;100858.34;;;6.36;100.00
45050;BME280;61798;48.048;-1.928;2024-02-28T08:17:17;100817.41;;;6.29;100.00
45050;BME280;61798;48.048;-1.928;2024-02-28T08:19:24;100851.09;;;6.55;100.00
45050;BME280;61798;48.048;-1.928;2024-02-28T08:21:32;100828.25;;;6.44;100.00
45050;BME280;61798;48.048;-1.928;2024-02-28T08:23:39;100837.47;;;6.58;100.00
45050;BME280;61798;48.048;-1.928;2024-02-28T08:25:46;100801.47;;;6.45;100.00
45050;BME280;61798;48.048;-1.928;2024-02-28T08:27:54;100812.69;;;6.74;100.00
45050;BME280;61798;48.048;-1.928;2024-02-28T08:30:03;100805.69;;;6.65;100.00
45050;BME280;61798;48.048;-1.928;2024-02-28T08:32:10;100796.38;;;6.77;100.00
45050;BME280;61798;48.048;-1.928;2024-02-28T08:34:18;100796.69;;;6.58;100.00
45050;BME280;61798;48.048;-1.928;2024-02-28T08:36:25;100776.63;;;6.89;100.00
45050;BME280;61798;48.048;-1.928;2024-02-28T08:38:32;100801.41;;;6.81;100.00
45050;BME280;61798;48.048;-1.928;2024-02-28T08:40:42;100798.56;;;6.82;100.00
45050;BME280;61798;48.048;-1.928;2024-02-28T08:42:49;100828.25;;;6.96;100.00
45050;BME280;61798;48.048;-1.928;2024-02-28T08:45:00;100840.91;;;7.11;100.00
45050;BME280;61798;48.048;-1.928;2024-02-28T08:47:08;100811.59;;;7.11;100.00
45050;BME280;61798;48.048;-1.928;2024-02-28T08:49:16;100827.09;;;7.24;100.00
45050;BME280;61798;48.048;-1.928;2024-02-28T08:51:22;100815.09;;;7.11;100.00
45050;BME280;61798;48.048;-1.928;2024-02-28T08:53:29;100826.59;;;7.12;100.00
45050;BME280;61798;48.048;-1.928;2024-02-28T08:55:36;100823.56;;;7.06;100.00
45050;BME280;61798;48.048;-1.928;2024-02-28T08:57:44;100821.25;;;7.12;100.00
45050;BME280;61798;48.048;-1.928;2024-02-28T08:59:51;100784.94;;;6.94;100.00
45050;BME280;61798;48.048;-1.928;2024-02-28T09:01:58;100817.56;;;7.13;100.00
45050;BME280;61798;48.048;-1.928;2024-02-28T09:04:05;100801.44;;;7.14;100.00
45050;BME280;61798;48.048;-1.928;2024-02-28T09:06:12;100812.94;;;7.15;100.00
45050;BME280;61798;48.048;-1.928;2024-02-28T09:08:19;100817.28;;;7.16;100.00
45050;BME280;61798;48.048;-1.928;2024-02-28T09:10:26;100815.94;;;7.20;100.00
45050;BME280;61798;48.048;-1.928;2024-02-28T09:12:33;100814.91;;;7.29;100.00
45050;BME280;61798;48.048;-1.928;2024-02-28T09:14:40;100819.75;;;7.17;100.00
45050;BME280;61798;48.048;-1.928;2024-02-28T09:16:48;100825.94;;;7.26;100.00
45050;BME280;61798;48.048;-1.928;2024-02-28T09:18:55;100791.94;;;7.20;100.00
45050;BME280;61798;48.048;-1.928;2024-02-28T09:21:03;100767.63;;;7.15;100.00
45050;BME280;61798;48.048;-1.928;2024-02-28T09:23:10;100781.94;;;7.22;100.00
45050;BME280;61798;48.048;-1.928;2024-02-28T09:25:17;100793.94;;;7.18;100.00
45050;BME280;61798;48.048;-1.928;2024-02-28T09:27:24;100798.28;;;7.27;100.00
45050;BME280;61798;48.048;-1.928;2024-02-28T09:29:31;100808.09;;;7.44;100.00
45050;BME280;61798;48.048;-1.928;2024-02-28T09:31:38;100803.25;;;7.47;100.00
45050;BME280;61798;48.048;-1.928;2024-02-28T09:33:45;100801.06;;;7.68;100.00
45050;BME280;61798;48.048;-1.928;2024-02-28T09:35:53;100779.56;;;7.53;100.00
45050;BME280;61798;48.048;-1.928;2024-02-28T09:38:00;100788.88;;;7.74;100.00
45050;BME280;61798;48.048;-1.928;2024-02-28T09:40:09;100788.38;;;7.70;100.00
45050;BME280;61798;48.048;-1.928;2024-02-28T09:42:16;100806.56;;;7.66;100.00
45050;BME280;61798;48.048;-1.928;2024-02-28T09:44:23;100804.00;;;7.90;100.00
45050;BME280;61798;48.048;-1.928;2024-02-28T09:46:30;100801.69;;;7.87;100.00
45050;BME280;61798;48.048;-1.928;2024-02-28T09:48:40;100801.69;;;7.87;100.00
45050;BME280;61798;48.048;-1.928;2024-02-28T09:50:51;100793.81;;;7.93;100.00
45050;BME280;61798;48.048;-1.928;2024-02-28T09:52:58;100794.47;;;8.04;100.00
45050;BME280;61798;48.048;-1.928;2024-02-28T09:55:06;100769.25;;;8.15;100.00
45050;BME280;61798;48.048;-1.928;2024-02-28T09:57:13;100789.06;;;8.21;100.00
45050;BME280;61798;48.048;-1.928;2024-02-28T09:59:20;100764.75;;;8.16;100.00
45050;BME280;61798;48.048;-1.928;2024-02-28T10:01:28;100776.22;;;8.16;100.00
45050;BME280;61798;48.048;-1.928;2024-02-28T10:03:39;100777.50;;;8.29;100.00
45050;BME280;61798;48.048;-1.928;2024-02-28T10:05:50;100813.75;;;8.23;100.00
45050;BME280;61798;48.048;-1.928;2024-02-28T10:07:57;100802.31;;;8.06;100.00
45050;BME280;61798;48.048;-1.928;2024-02-28T10:10:06;100819.63;;;8.10;100.00
45050;BME280;61798;48.048;-1.928;2024-02-28T10:12:15;100798.78;;;8.05;100.00
45050;BME280;61798;48.048;-1.928;2024-02-28T10:14:22;100807.44;;;8.16;100.00
45050;BME280;61798;48.048;-1.928;2024-02-28T10:16:29;100824.47;;;8.14;100.00
45050;BME280;61798;48.048;-1.928;2024-02-28T10:18:36;100814.13;;;8.20;100.00
45050;BME280;61798;48.048;-1.928;2024-02-28T10:20:43;100805.59;;;8.16;100.00
45050;BME280;61798;48.048;-1.928;2024-02-28T10:22:52;100810.41;;;8.21;100.00
45050;BME280;61798;48.048;-1.928;2024-02-28T10:25:00;100812.56;;;8.25;100.00
45050;BME280;61798;48.048;-1.928;2024-02-28T10:27:07;100804.47;;;8.02;100.00
45050;BME280;61798;48.048;-1.928;2024-02-28T10:29:14;100828.63;;;8.09;100.00
45050;BME280;61798;48.048;-1.928;2024-02-28T10:31:22;100819.47;;;8.11;100.00
45050;BME280;61798;48.048;-1.928;2024-02-28T10:33:28;100810.13;;;8.16;100.00
45050;BME280;61798;48.048;-1.928;2024-02-28T10:35:35;100849.44;;;8.30;100.00
45050;BME280;61798;48.048;-1.928;2024-02-28T10:37:44;100852.47;;;8.27;100.00
45050;BME280;61798;48.048;-1.928;2024-02-28T10:39:52;100832.22;;;8.33;100.00
45050;BME280;61798;48.048;-1.928;2024-02-28T10:42:00;100811.56;;;8.27;100.00
45050;BME280;61798;48.048;-1.928;2024-02-28T10:44:09;100837.22;;;8.36;100.00
45050;BME280;61798;48.048;-1.928;2024-02-28T10:46:20;100843.19;;;8.46;100.00
45050;BME280;61798;48.048;-1.928;2024-02-28T10:48:30;100837.81;;;8.55;100.00
45050;BME280;61798;48.048;-1.928;2024-02-28T10:50:37;100802.63;;;8.51;100.00
45050;BME280;61798;48.048;-1.928;2024-02-28T10:52:44;100819.88;;;8.72;100.00
45050;BME280;61798;48.048;-1.928;2024-02-28T10:54:56;100812.94;;;8.63;100.00
45050;BME280;61798;48.048;-1.928;2024-02-28T10:57:15;100819.72;;;8.97;100.00
45050;BME280;61798;48.048;-1.928;2024-02-28T10:59:28;100831.75;;;9.02;100.00